Time;durP1;ratioP1;P1;durP2;ratioP2;P2;SDS_P1;SDS_P2;PMS_P1;PMS_P2;Temp;Humidity;BMP_temperature;BMP_pressure;BME280_temperature;BME280_humidity;BME280_pressure;Samples;Min_cycle;Max_cycle;Signal;HPM_P1;HPM_P2
2023/07/04 00:01:24;;;;;;;15.75;4.97;;;13.00;99.90;;;;;;5109167;28;20552;-66
2023/07/04 00:03:55;;;;;;;11.65;4.32;;;13.00;99.90;;;;;;5143102;27;20043;-66
2023/07/04 00:06:23;;;;;;;11.77;4.32;;;13.00;99.90;;;;;;5109069;28;20126;-66
2023/07/04 00:08:50;;;;;;;12.18;3.78;;;13.00;99.90;;;;;;5092295;28;20047;-66
2023/07/04 00:11:19;;;;;;;14.10;4.65;;;13.00;99.90;;;;;;5110111;28;20509;-66
2023/07/04 00:13:45;;;;;;;10.88;4.68;;;13.00;99.90;;;;;;5143430;27;20036;-66
2023/07/04 00:16:14;;;;;;;16.90;6.10;;;13.00;99.90;;;;;;5113112;28;20039;-67
2023/07/04 00:18:41;;;;;;;12.00;4.88;;;13.00;99.90;;;;;;5112184;28;20118;-66
2023/07/04 00:21:13;;;;;;;16.55;5.03;;;13.00;99.90;;;;;;5146519;27;20040;-66
2023/07/04 00:23:45;;;;;;;17.05;5.32;;;13.00;99.90;;;;;;5095366;28;21180;-66
2023/07/04 00:26:17;;;;;;;15.93;5.23;;;13.00;99.90;;;;;;5146807;27;20500;-66
2023/07/04 00:28:43;;;;;;;15.15;4.70;;;13.00;99.90;;;;;;5146316;27;20047;-67
2023/07/04 00:31:11;;;;;;;19.52;5.70;;;13.00;99.90;;;;;;5146490;27;20046;-66
2023/07/04 00:33:36;;;;;;;17.02;5.93;;;13.00;99.90;;;;;;5146443;27;20099;-67
2023/07/04 00:36:05;;;;;;;13.13;4.93;;;13.00;99.90;;;;;;5146839;27;20071;-67
2023/07/04 00:38:32;;;;;;;18.63;5.90;;;13.00;99.90;;;;;;5146631;27;20035;-67
2023/07/04 00:41:04;;;;;;;13.15;5.57;;;13.00;99.90;;;;;;5095018;28;20050;-66
2023/07/04 00:44:09;;;;;;;22.77;5.95;;;13.00;99.90;;;;;;5146410;27;20051;-67
2023/07/04 00:46:45;;;;;;;18.67;6.47;;;13.00;99.90;;;;;;5146455;27;20044;-67
2023/07/04 00:49:22;;;;;;;19.35;5.65;;;13.00;99.90;;;;;;5113327;28;20370;-67
2023/07/04 00:52:01;;;;;;;14.43;6.47;;;13.00;99.90;;;;;;5094514;28;20519;-67
2023/07/04 00:54:32;;;;;;;12.50;5.25;;;13.00;99.90;;;;;;5146207;27;20423;-66
2023/07/04 00:57:04;;;;;;;19.57;6.40;;;13.00;99.90;;;;;;5112919;28;20035;-66
2023/07/04 00:59:37;;;;;;;14.77;6.38;;;13.00;99.90;;;;;;5111508;28;20116;-66
2023/07/04 01:02:04;;;;;;;20.23;7.68;;;13.00;99.90;;;;;;5111829;28;20451;-67
2023/07/04 01:04:32;;;;;;;16.73;6.13;;;13.00;99.90;;;;;;5145780;27;20048;-67
2023/07/04 01:07:25;;;;;;;21.02;6.75;;;13.00;99.90;;;;;;5094575;28;20050;-67
2023/07/04 01:09:58;;;;;;;14.60;5.55;;;13.00;99.90;;;;;;5145833;27;20043;-66
2023/07/04 01:12:29;;;;;;;16.13;6.55;;;13.00;99.90;;;;;;5112592;28;20065;-66
2023/07/04 01:14:57;;;;;;;19.47;6.53;;;12.90;99.90;;;;;;5145655;27;20036;-67
2023/07/04 01:17:23;;;;;;;17.33;5.90;;;12.90;99.90;;;;;;5145946;27;20047;-67
2023/07/04 01:19:50;;;;;;;15.93;6.45;;;12.90;99.90;;;;;;5094483;28;20400;-66
2023/07/04 01:22:31;;;;;;;17.95;5.50;;;12.90;99.90;;;;;;5145777;27;20050;-67
2023/07/04 01:25:29;;;;;;;17.17;6.70;;;12.80;99.90;;;;;;5094310;28;20392;-66
2023/07/04 01:27:59;;;;;;;13.90;6.05;;;12.80;99.90;;;;;;5111105;28;20114;-67
2023/07/04 01:30:28;;;;;;;21.02;6.20;;;12.80;99.90;;;;;;5112366;27;20035;-67
2023/07/04 01:32:55;;;;;;;14.00;5.82;;;12.80;99.90;;;;;;5145325;27;20040;-66
2023/07/04 01:35:25;;;;;;;13.68;6.13;;;12.80;99.90;;;;;;5093741;28;20110;-67
2023/07/04 01:37:51;;;;;;;13.60;5.88;;;12.80;99.90;;;;;;5112021;28;20119;-67
2023/07/04 01:40:17;;;;;;;16.42;5.93;;;12.80;99.90;;;;;;5110550;28;20123;-67
2023/07/04 01:42:44;;;;;;;13.70;5.97;;;12.80;99.90;;;;;;5145119;27;20039;-67
2023/07/04 01:45:10;;;;;;;16.33;5.72;;;12.70;99.90;;;;;;5145224;27;20047;-67
2023/07/04 01:47:37;;;;;;;13.98;6.13;;;12.80;99.90;;;;;;5145307;27;20083;-67
2023/07/04 01:50:04;;;;;;;14.88;6.35;;;12.70;99.90;;;;;;5076844;28;20126;-66
2023/07/04 01:52:30;;;;;;;14.82;5.82;;;12.70;99.90;;;;;;5093578;28;20500;-66
2023/07/04 01:54:57;;;;;;;19.25;5.70;;;12.70;99.90;;;;;;5145280;27;20412;-67
2023/07/04 01:57:23;;;;;;;15.18;5.80;;;12.70;99.90;;;;;;5110697;28;20099;-67
2023/07/04 01:59:51;;;;;;;12.30;5.43;;;12.60;99.90;;;;;;5144865;27;20255;-67
2023/07/04 02:02:17;;;;;;;19.85;6.30;;;12.60;99.90;;;;;;5144752;27;20047;-67
2023/07/04 02:04:42;;;;;;;20.13;5.70;;;12.60;99.90;;;;;;5093479;28;20050;-67
2023/07/04 02:07:08;;;;;;;15.27;6.25;;;12.60;99.90;;;;;;5093178;28;20043;-67
2023/07/04 02:09:34;;;;;;;15.23;6.13;;;12.60;99.90;;;;;;5127430;27;20032;-67
2023/07/04 02:12:00;;;;;;;15.50;5.90;;;12.60;99.90;;;;;;5144233;27;20095;-67
2023/07/04 02:14:25;;;;;;;19.75;6.32;;;12.50;99.90;;;;;;5093135;28;20047;-67
2023/07/04 02:16:52;;;;;;;15.30;5.72;;;12.50;99.90;;;;;;5110344;27;20263;-66
2023/07/04 02:19:18;;;;;;;18.13;6.05;;;12.50;99.90;;;;;;5127384;27;20513;-67
2023/07/04 02:21:44;;;;;;;17.50;6.53;;;12.50;99.90;;;;;;5144702;27;20389;-66
2023/07/04 02:24:11;;;;;;;16.17;5.53;;;12.50;99.90;;;;;;5144414;27;20496;-67
2023/07/04 02:26:36;;;;;;;12.95;5.60;;;12.50;99.90;;;;;;5144547;27;20130;-67
2023/07/04 02:29:03;;;;;;;15.25;5.80;;;12.40;99.90;;;;;;5144186;27;20564;-66
2023/07/04 02:31:28;;;;;;;18.27;5.47;;;12.40;99.90;;;;;;5109655;28;20075;-67
2023/07/04 02:33:54;;;;;;;14.65;5.57;;;12.40;99.90;;;;;;5093160;28;20093;-67
2023/07/04 02:36:20;;;;;;;13.18;5.60;;;12.40;99.90;;;;;;5144377;27;20130;-67
2023/07/04 02:38:46;;;;;;;16.58;6.15;;;12.40;99.90;;;;;;5092286;28;20554;-66
2023/07/04 02:41:12;;;;;;;16.33;6.03;;;12.30;99.90;;;;;;5109655;28;20039;-67
2023/07/04 02:43:38;;;;;;;18.33;5.75;;;12.30;99.90;;;;;;5144039;27;20124;-67
2023/07/04 02:46:05;;;;;;;14.40;5.55;;;12.30;99.90;;;;;;5092612;28;20078;-67
2023/07/04 02:48:32;;;;;;;15.55;5.40;;;12.20;99.90;;;;;;5109701;28;20116;-67
2023/07/04 02:50:58;;;;;;;12.13;5.78;;;12.20;99.90;;;;;;5143730;27;20132;-67
2023/07/04 02:53:24;;;;;;;14.40;5.85;;;12.20;99.90;;;;;;5092859;28;20431;-67
2023/07/04 02:55:51;;;;;;;14.50;5.97;;;12.20;99.90;;;;;;5144152;27;20039;-67
2023/07/04 02:58:17;;;;;;;20.85;6.70;;;12.20;99.90;;;;;;5143456;27;20270;-67
2023/07/04 03:00:43;;;;;;;15.40;5.63;;;12.10;99.90;;;;;;5109542;28;20035;-67
2023/07/04 03:03:09;;;;;;;19.13;6.20;;;12.10;99.90;;;;;;5143469;27;20035;-67
2023/07/04 03:05:36;;;;;;;20.85;6.50;;;12.20;99.90;;;;;;5092430;28;20035;-67
2023/07/04 03:08:03;;;;;;;21.08;6.28;;;12.10;99.90;;;;;;5126175;28;20035;-67
2023/07/04 03:10:29;;;;;;;20.08;6.05;;;12.10;99.90;;;;;;5143635;27;20119;-67
2023/07/04 03:12:55;;;;;;;15.77;5.80;;;12.10;99.90;;;;;;5092209;28;20063;-67
2023/07/04 03:15:20;;;;;;;15.05;6.32;;;12.10;99.90;;;;;;5143557;27;20050;-67
2023/07/04 03:17:47;;;;;;;19.52;6.65;;;12.10;99.90;;;;;;5092248;28;20043;-67
2023/07/04 03:20:13;;;;;;;18.50;6.43;;;12.10;99.90;;;;;;5092189;28;20035;-67
2023/07/04 03:22:39;;;;;;;25.90;7.13;;;12.10;99.90;;;;;;5091970;28;20047;-67
2023/07/04 03:25:05;;;;;;;19.63;6.70;;;12.10;99.90;;;;;;5143671;27;20047;-67
2023/07/04 03:27:32;;;;;;;20.85;6.57;;;12.10;99.90;;;;;;5143297;27;20055;-67
2023/07/04 03:29:58;;;;;;;17.95;7.65;;;12.10;99.90;;;;;;5143283;27;20051;-67
2023/07/04 03:32:24;;;;;;;20.58;7.35;;;12.20;99.90;;;;;;5074809;28;20039;-67
2023/07/04 03:34:49;;;;;;;22.02;8.02;;;12.20;99.90;;;;;;5142855;27;20120;-66
2023/07/04 03:37:15;;;;;;;18.20;7.43;;;12.20;99.90;;;;;;5092362;28;20130;-67
2023/07/04 03:39:41;;;;;;;18.33;7.63;;;12.20;99.90;;;;;;5126329;28;20485;-67
2023/07/04 03:42:07;;;;;;;19.40;7.57;;;12.20;99.90;;;;;;5143494;27;20158;-67
2023/07/04 03:44:33;;;;;;;18.67;7.97;;;12.20;99.90;;;;;;5091920;28;20528;-67
2023/07/04 03:46:59;;;;;;;16.27;7.25;;;12.20;99.90;;;;;;5143105;27;20036;-67
2023/07/04 03:49:24;;;;;;;19.10;6.55;;;12.20;99.90;;;;;;5143921;27;20322;-67
2023/07/04 03:51:50;;;;;;;23.95;8.30;;;12.20;99.90;;;;;;5078684;28;20130;-67
2023/07/04 03:54:17;;;;;;;22.83;8.32;;;12.20;99.90;;;;;;5112819;28;20131;-67
2023/07/04 03:56:43;;;;;;;17.85;7.57;;;12.20;99.90;;;;;;5095929;28;20040;-67
2023/07/04 03:59:08;;;;;;;16.50;8.02;;;12.30;99.90;;;;;;5147233;27;20043;-67
2023/07/04 04:01:34;;;;;;;17.17;7.88;;;12.30;99.90;;;;;;5062216;28;20601;-67
2023/07/04 04:03:59;;;;;;;18.30;7.20;;;12.30;99.90;;;;;;5147236;27;20165;-67
2023/07/04 04:06:25;;;;;;;19.63;7.93;;;12.30;99.90;;;;;;5096068;28;20047;-67
2023/07/04 04:08:51;;;;;;;26.42;8.15;;;12.30;99.90;;;;;;5146910;27;20452;-67
2023/07/04 04:11:17;;;;;;;17.65;7.93;;;12.30;99.90;;;;;;5112989;27;20040;-67
2023/07/04 04:13:42;;;;;;;21.90;8.60;;;12.40;99.90;;;;;;5147232;27;20039;-67
2023/07/04 04:16:08;;;;;;;27.85;9.35;;;12.40;99.90;;;;;;5095561;28;20377;-67
2023/07/04 04:18:34;;;;;;;19.20;8.40;;;12.40;99.90;;;;;;5112647;27;20032;-67
2023/07/04 04:20:59;;;;;;;21.85;8.35;;;12.40;99.90;;;;;;5146665;27;20042;-67
2023/07/04 04:23:25;;;;;;;22.98;8.20;;;12.40;99.90;;;;;;5146739;27;20044;-67
2023/07/04 04:25:51;;;;;;;17.27;7.40;;;12.40;99.90;;;;;;5095383;28;20039;-67
2023/07/04 04:28:16;;;;;;;15.20;7.45;;;12.40;99.90;;;;;;5129423;27;20043;-67
2023/07/04 04:30:43;;;;;;;17.70;6.97;;;12.50;99.90;;;;;;5146718;27;20412;-67
2023/07/04 04:33:09;;;;;;;17.20;6.88;;;12.40;99.90;;;;;;5129572;27;20048;-67
2023/07/04 04:35:38;;;;;;;14.02;6.47;;;12.50;99.90;;;;;;5112217;28;20110;-67
2023/07/04 04:38:04;;;;;;;16.92;7.28;;;12.50;99.90;;;;;;5146459;27;20046;-67
2023/07/04 04:40:32;;;;;;;16.88;6.55;;;12.50;99.90;;;;;;5129312;27;20035;-67
2023/07/04 04:42:58;;;;;;;14.23;6.60;;;12.50;99.90;;;;;;5094847;28;20043;-67
2023/07/04 04:45:23;;;;;;;18.38;7.45;;;12.60;99.90;;;;;;5129254;27;20043;-67
2023/07/04 04:47:52;;;;;;;16.85;5.72;;;12.60;99.90;;;;;;5078023;28;20122;-67
2023/07/04 04:50:30;;;;;;;12.65;6.20;;;12.60;99.90;;;;;;5146335;27;20043;-67
2023/07/04 04:52:57;;;;;;;11.77;5.95;;;12.70;99.90;;;;;;5145932;27;20048;-67
2023/07/04 04:55:23;;;;;;;13.18;5.70;;;12.70;99.90;;;;;;5111885;28;20047;-67
2023/07/04 04:57:49;;;;;;;25.45;6.72;;;12.70;99.90;;;;;;5111646;28;20040;-67
2023/07/04 05:00:16;;;;;;;11.63;5.95;;;12.70;99.90;;;;;;5145890;27;20043;-67
2023/07/04 05:02:42;;;;;;;14.55;6.20;;;12.70;99.90;;;;;;5095057;28;20114;-67
2023/07/04 05:05:08;;;;;;;13.32;5.88;;;12.80;99.90;;;;;;5145850;27;20043;-67
2023/07/04 05:07:34;;;;;;;11.07;4.93;;;12.80;99.90;;;;;;5077573;28;20119;-67
2023/07/04 05:10:02;;;;;;;14.52;5.55;;;12.80;99.90;;;;;;5094229;28;20131;-67
2023/07/04 05:12:27;;;;;;;10.50;5.28;;;12.80;99.90;;;;;;5094306;28;20035;-67
2023/07/04 05:14:53;;;;;;;13.50;4.93;;;12.80;99.90;;;;;;5094265;28;20641;-67
2023/07/04 05:17:19;;;;;;;12.55;4.93;;;12.80;99.90;;;;;;5094527;28;20036;-67
2023/07/04 05:19:48;;;;;;;9.32;5.20;;;12.90;99.90;;;;;;5145499;27;20123;-67
2023/07/04 05:22:14;;;;;;;10.90;4.53;;;12.90;99.90;;;;;;5145716;27;20048;-67
2023/07/04 05:24:40;;;;;;;11.88;4.57;;;12.90;99.90;;;;;;5145280;27;20051;-67
2023/07/04 05:27:06;;;;;;;9.57;4.78;;;12.90;99.90;;;;;;5145414;27;20047;-67
2023/07/04 05:29:31;;;;;;;12.75;4.72;;;12.90;99.90;;;;;;5093826;28;20085;-67
2023/07/04 05:31:57;;;;;;;9.75;4.18;;;13.00;99.90;;;;;;5145409;27;20039;-67
2023/07/04 05:34:23;;;;;;;7.38;3.42;;;13.00;99.90;;;;;;5128170;27;20393;-67
2023/07/04 05:36:49;;;;;;;11.60;4.40;;;13.00;99.90;;;;;;5128500;27;20405;-67
2023/07/04 05:39:15;;;;;;;11.05;3.97;;;13.00;99.90;;;;;;5145177;27;20036;-67
2023/07/04 05:41:41;;;;;;;10.40;3.95;;;13.00;99.90;;;;;;5094037;28;20047;-67
2023/07/04 05:44:08;;;;;;;7.55;3.92;;;13.10;99.90;;;;;;5145583;27;20048;-67
2023/07/04 05:46:35;;;;;;;15.68;4.03;;;13.10;99.90;;;;;;5093907;28;20075;-68
2023/07/04 05:49:02;;;;;;;8.27;3.33;;;13.10;99.90;;;;;;5145071;27;20047;-68
2023/07/04 05:51:28;;;;;;;5.97;3.17;;;13.10;99.90;;;;;;5093558;28;20047;-67
2023/07/04 05:53:54;;;;;;;11.60;3.55;;;13.20;99.90;;;;;;5145119;27;20108;-67
2023/07/04 05:56:22;;;;;;;7.65;3.90;;;13.20;99.90;;;;;;5093724;28;20475;-67
2023/07/04 05:58:49;;;;;;;6.65;3.15;;;13.20;99.90;;;;;;5144579;27;20078;-67
2023/07/04 06:01:21;;;;;;;8.23;3.13;;;13.30;99.90;;;;;;5145169;27;20050;-68
2023/07/04 06:03:48;;;;;;;12.45;3.28;;;13.30;99.90;;;;;;5144936;27;20086;-68
2023/07/04 06:06:20;;;;;;;10.82;3.65;;;13.30;99.90;;;;;;5110650;28;20061;-67
2023/07/04 06:08:46;;;;;;;;;;;13.40;99.90;;;;;;5093746;28;20035;-67
2023/07/04 06:11:12;;;;;;;8.32;3.15;;;13.40;99.90;;;;;;5093380;28;20009;-68
2023/07/04 06:13:38;;;;;;;8.18;2.75;;;13.40;99.90;;;;;;5092449;28;20508;-67
2023/07/04 06:16:04;;;;;;;6.63;3.10;;;13.40;99.90;;;;;;5144472;27;20172;-67
2023/07/04 06:18:30;;;;;;;9.52;3.30;;;13.50;99.90;;;;;;5093397;28;20078;-68
2023/07/04 06:21:06;;;;;;;10.70;3.30;;;13.50;99.90;;;;;;5144323;27;20039;-68
2023/07/04 06:23:32;;;;;;;6.95;2.83;;;13.50;99.90;;;;;;5110077;28;20039;-67
2023/07/04 06:25:58;;;;;;;8.73;3.55;;;13.60;99.90;;;;;;5144399;27;20036;-67
2023/07/04 06:28:25;;;;;;;15.13;3.60;;;13.60;99.90;;;;;;5144074;27;20035;-66
2023/07/04 06:30:50;;;;;;;8.65;4.60;;;13.60;99.90;;;;;;5093133;28;20073;-67
2023/07/04 06:33:16;;;;;;;8.55;2.95;;;13.70;99.90;;;;;;5111139;28;20440;-67
2023/07/04 06:35:42;;;;;;;11.57;2.95;;;13.70;99.90;;;;;;5092822;28;20078;-67
2023/07/04 06:38:09;;;;;;;8.93;3.13;;;13.70;99.90;;;;;;5092972;28;20042;-67
2023/07/04 06:40:35;;;;;;;8.30;3.30;;;13.80;99.90;;;;;;5144289;27;20114;-67
2023/07/04 06:43:01;;;;;;;6.50;2.97;;;13.90;99.90;;;;;;5144080;27;20200;-67
2023/07/04 06:45:26;;;;;;;8.65;3.25;;;14.00;99.90;;;;;;5126813;27;20047;-67
2023/07/04 06:47:52;;;;;;;9.77;3.05;;;14.10;99.90;;;;;;5093162;28;20031;-67
2023/07/04 06:50:18;;;;;;;5.88;2.55;;;14.10;99.90;;;;;;5144120;27;20592;-67
2023/07/04 06:52:43;;;;;;;3.85;2.53;;;14.30;99.90;;;;;;5075622;28;20389;-67
2023/07/04 06:55:09;;;;;;;4.50;2.72;;;14.30;99.90;;;;;;5092507;28;20066;-68
2023/07/04 06:57:35;;;;;;;8.00;2.55;;;14.40;99.90;;;;;;5127060;27;20078;-67
2023/07/04 07:00:01;;;;;;;6.30;3.03;;;14.50;99.90;;;;;;5144041;27;20484;-67
2023/07/04 07:02:26;;;;;;;8.98;2.90;;;14.50;99.90;;;;;;5092691;28;20453;-67
2023/07/04 07:04:52;;;;;;;5.55;2.30;;;14.60;99.90;;;;;;5143774;27;20039;-68
2023/07/04 07:07:18;;;;;;;5.72;2.45;;;14.60;99.90;;;;;;5092656;28;20040;-68
2023/07/04 07:09:44;;;;;;;10.05;2.58;;;14.60;99.90;;;;;;5109760;28;20089;-68
2023/07/04 07:12:11;;;;;;;8.80;2.97;;;14.70;99.90;;;;;;5126235;28;20096;-68
2023/07/04 07:14:38;;;;;;;6.07;2.60;;;14.70;99.90;;;;;;5110893;28;20051;-67
2023/07/04 07:17:07;;;;;;;5.10;2.33;;;14.70;99.90;;;;;;5109628;28;20152;-68
2023/07/04 07:19:34;;;;;;;5.47;2.72;;;14.70;99.90;;;;;;5092638;28;20134;-68
2023/07/04 07:22:00;;;;;;;5.82;2.17;;;14.70;99.90;;;;;;5092402;28;20404;-67
2023/07/04 07:24:30;;;;;;;5.25;2.10;;;14.80;99.90;;;;;;5146021;27;20050;-68
2023/07/04 07:26:57;;;;;;;5.47;2.42;;;14.90;99.90;;;;;;5147690;27;20450;-67
2023/07/04 07:29:24;;;;;;;4.78;2.63;;;14.90;99.90;;;;;;5147805;27;20079;-68
2023/07/04 07:31:50;;;;;;;8.90;2.40;;;15.00;99.90;;;;;;5096116;28;20067;-67
2023/07/04 07:34:17;;;;;;;3.67;1.83;;;15.10;99.90;;;;;;5096638;28;20123;-67
2023/07/04 07:36:44;;;;;;;8.23;2.60;;;15.10;99.90;;;;;;5130487;27;20423;-68
2023/07/04 07:39:13;;;;;;;4.55;2.78;;;15.20;99.90;;;;;;5096294;28;20042;-68
2023/07/04 07:41:41;;;;;;;4.72;2.55;;;15.30;99.90;;;;;;5147472;27;20488;-67
2023/07/04 07:44:08;;;;;;;6.80;2.63;;;15.40;99.90;;;;;;5096194;28;20043;-68
2023/07/04 07:46:34;;;;;;;6.32;2.10;;;15.40;99.90;;;;;;5096175;28;20122;-67
2023/07/04 07:49:00;;;;;;;7.18;2.35;;;15.50;99.90;;;;;;5096372;28;20134;-68
2023/07/04 07:51:27;;;;;;;7.97;2.10;;;15.70;99.90;;;;;;5095617;28;20047;-68
2023/07/04 07:53:55;;;;;;;6.20;2.35;;;15.90;99.90;;;;;;5130112;27;20040;-67
2023/07/04 07:56:24;;;;;;;6.93;2.05;;;16.10;99.90;;;;;;5095956;28;20035;-67
2023/07/04 07:58:49;;;;;;;7.90;2.40;;;16.20;99.90;;;;;;5095982;28;20042;-67
2023/07/04 08:01:24;;;;;;;11.23;2.53;;;16.30;99.90;;;;;;5113010;28;20401;-68
2023/07/04 08:03:50;;;;;;;8.35;2.58;;;16.30;99.90;;;;;;5095873;28;20107;-67
2023/07/04 08:06:37;;;;;;;10.43;2.38;;;16.30;99.90;;;;;;5147392;27;20036;-68
2023/07/04 08:09:05;;;;;;;8.85;2.72;;;16.30;99.90;;;;;;5147100;27;20050;-68
2023/07/04 08:11:31;;;;;;;7.75;2.50;;;16.30;99.90;;;;;;5095706;28;20067;-68
2023/07/04 08:13:57;;;;;;;7.18;2.58;;;16.20;99.90;;;;;;5129868;27;20046;-67
2023/07/04 08:16:42;;;;;;;4.57;2.28;;;16.20;99.90;;;;;;5147308;27;20032;-68
2023/07/04 08:19:08;;;;;;;6.43;2.40;;;16.20;99.90;;;;;;5095564;28;20122;-68
2023/07/04 08:21:33;;;;;;;8.10;2.55;;;16.20;99.90;;;;;;5146980;27;20130;-68
2023/07/04 08:23:59;;;;;;;7.05;2.38;;;16.20;99.90;;;;;;5078895;28;20541;-68
2023/07/04 08:26:26;;;;;;;5.68;2.20;;;16.20;99.90;;;;;;5147048;27;20370;-69
2023/07/04 08:28:54;;;;;;;7.38;2.88;;;16.20;99.90;;;;;;5146431;27;20523;-68
2023/07/04 08:31:20;;;;;;;8.45;2.53;;;16.30;99.90;;;;;;5112405;28;20044;-67
2023/07/04 08:33:47;;;;;;;8.55;2.40;;;16.30;99.90;;;;;;5113465;28;20074;-68
2023/07/04 08:36:14;;;;;;;7.68;2.25;;;16.40;99.90;;;;;;5145818;27;20039;-66
2023/07/04 08:38:41;;;;;;;5.93;2.28;;;16.50;99.90;;;;;;5146357;27;20095;-67
2023/07/04 08:41:35;;;;;;;4.75;2.28;;;16.60;99.90;;;;;;5146445;27;20046;-67
2023/07/04 08:44:06;;;;;;;7.93;2.78;;;16.70;99.90;;;;;;5146270;27;20374;-67
2023/07/04 08:46:47;;;;;;;7.40;2.22;;;16.70;99.90;;;;;;5095071;28;20040;-68
2023/07/04 08:49:30;;;;;;;9.38;2.85;;;16.80;99.90;;;;;;5146664;27;20040;-68
2023/07/04 08:51:57;;;;;;;;;;;16.90;99.90;;;;;;5095233;28;20050;-67
2023/07/04 08:54:26;;;;;;;8.10;2.58;;;17.00;99.90;;;;;;5111809;28;19916;-68
2023/07/04 08:56:53;;;;;;;6.57;2.75;;;17.00;99.90;;;;;;5113141;28;20031;-68
2023/07/04 08:59:40;;;;;;;10.38;2.67;;;17.00;99.90;;;;;;5145754;27;20047;-68
2023/07/04 09:02:26;;;;;;;13.43;2.92;;;17.00;99.90;;;;;;5146142;27;20040;-68
2023/07/04 09:04:56;;;;;;;9.52;3.08;;;16.90;99.90;;;;;;5094656;28;20046;-68
2023/07/04 09:07:50;;;;;;;8.57;3.20;;;16.90;99.90;;;;;;5111371;28;20052;-67
2023/07/04 09:10:30;;;;;;;5.43;2.40;;;16.90;99.90;;;;;;5111510;28;20039;-67
2023/07/04 09:12:56;;;;;;;10.10;2.80;;;16.80;99.90;;;;;;5145729;27;20039;-68
2023/07/04 09:15:35;;;;;;;10.02;2.88;;;16.80;99.90;;;;;;5145914;27;20492;-67
2023/07/04 09:18:26;;;;;;;9.85;3.58;;;16.80;99.90;;;;;;5145980;27;20039;-68
2023/07/04 09:21:08;;;;;;;9.35;2.92;;;16.80;99.90;;;;;;5094186;28;20513;-68
2023/07/04 09:23:34;;;;;;;11.23;2.77;;;16.70;99.90;;;;;;5145814;27;20118;-68
2023/07/04 09:26:00;;;;;;;6.20;2.38;;;16.60;99.90;;;;;;5077637;28;20647;-68
2023/07/04 09:28:27;;;;;;;9.68;2.92;;;16.60;99.90;;;;;;5128118;27;20458;-68
2023/07/04 09:30:58;;;;;;;10.88;2.90;;;16.60;99.90;;;;;;5094045;28;20035;-67
2023/07/04 09:33:25;;;;;;;8.32;2.58;;;16.50;99.90;;;;;;5093940;28;20454;-68
2023/07/04 09:35:51;;;;;;;10.70;2.83;;;16.40;99.90;;;;;;5145819;27;20127;-68
2023/07/04 09:38:16;;;;;;;12.77;3.15;;;16.30;99.90;;;;;;5145251;27;20138;-68
2023/07/04 09:40:52;;;;;;;12.60;3.53;;;16.00;99.90;;;;;;5110990;28;20036;-68
2023/07/04 09:43:33;;;;;;;12.10;3.08;;;15.80;99.90;;;;;;5145029;27;20089;-68
2023/07/04 09:46:22;;;;;;;9.02;3.53;;;15.60;99.90;;;;;;5145159;27;20053;-68
2023/07/04 09:48:49;;;;;;;12.25;3.13;;;15.50;99.90;;;;;;5145116;27;20047;-68
2023/07/04 09:51:20;;;;;;;12.10;3.30;;;15.60;99.90;;;;;;5145036;27;20044;-68
2023/07/04 09:53:46;;;;;;;9.10;2.92;;;15.60;99.90;;;;;;5110568;28;20044;-66
2023/07/04 09:56:25;;;;;;;11.35;3.67;;;15.70;99.90;;;;;;5111944;28;20116;-68
2023/07/04 09:59:14;;;;;;;9.38;2.75;;;15.80;99.90;;;;;;5144697;27;20035;-68
2023/07/04 10:01:45;;;;;;;10.52;2.90;;;16.10;99.90;;;;;;5144856;27;20039;-67
2023/07/04 10:04:13;;;;;;;4.55;2.00;;;16.40;99.90;;;;;;5110268;28;20050;-67
2023/07/04 10:06:43;;;;;;;8.15;2.53;;;16.70;99.90;;;;;;5093492;28;20164;-66
2023/07/04 10:09:20;;;;;;;6.90;2.58;;;16.90;99.90;;;;;;5144966;27;20386;-66
2023/07/04 10:11:54;;;;;;;7.60;2.42;;;17.10;99.90;;;;;;5144763;27;20377;-67
2023/07/04 10:14:35;;;;;;;6.00;2.28;;;17.30;99.90;;;;;;5144539;27;20050;-67
2023/07/04 10:17:14;;;;;;;9.52;2.65;;;17.60;99.90;;;;;;5111657;28;20043;-67
2023/07/04 10:19:47;;;;;;;10.85;3.03;;;17.70;99.90;;;;;;5144506;27;20036;-67
2023/07/04 10:22:21;;;;;;;6.00;2.60;;;18.00;99.90;;;;;;5144579;27;20036;-67
2023/07/04 10:24:48;;;;;;;9.43;2.53;;;18.10;99.90;;;;;;5092940;28;20044;-66
2023/07/04 10:27:14;;;;;;;8.35;2.50;;;18.30;99.90;;;;;;5092973;28;20043;-67
2023/07/04 10:29:45;;;;;;;6.40;2.38;;;18.50;99.90;;;;;;5144095;27;20039;-67
2023/07/04 10:32:15;;;;;;;5.20;2.57;;;18.60;99.90;;;;;;5144433;27;20124;-67
2023/07/04 10:34:43;;;;;;;5.88;2.45;;;18.50;99.90;;;;;;5109902;28;20079;-67
2023/07/04 10:37:19;;;;;;;12.23;3.20;;;18.30;99.90;;;;;;5092918;28;20039;-67
2023/07/04 10:39:45;;;;;;;14.50;3.30;;;18.10;99.90;;;;;;5144369;27;20043;-67
2023/07/04 10:42:20;;;;;;;8.10;2.55;;;17.80;99.90;;;;;;5109962;28;20062;-67
2023/07/04 10:44:51;;;;;;;6.95;2.80;;;17.60;99.90;;;;;;5144317;27;20400;-67
2023/07/04 10:47:25;;;;;;;9.57;3.05;;;17.30;99.90;;;;;;5144076;27;20528;-68
2023/07/04 10:50:01;;;;;;;9.02;3.10;;;17.10;99.90;;;;;;5143867;27;20442;-67
2023/07/04 10:52:33;;;;;;;7.13;3.25;;;16.90;99.90;;;;;;5143828;27;20047;-67
2023/07/04 10:55:00;;;;;;;9.85;2.78;;;16.80;99.90;;;;;;5109744;28;20082;-67
2023/07/04 10:57:34;;;;;;;11.82;3.58;;;16.80;99.90;;;;;;5144098;27;20036;-68
2023/07/04 11:00:34;;;;;;;6.95;2.72;;;16.70;99.90;;;;;;5143642;27;20047;-67
2023/07/04 11:03:27;;;;;;;10.48;3.13;;;16.60;99.90;;;;;;5144041;27;20051;-67
2023/07/04 11:05:55;;;;;;;7.53;2.92;;;16.50;99.90;;;;;;5119039;28;20048;-67
2023/07/04 11:08:27;;;;;;;8.40;2.60;;;16.50;99.90;;;;;;5143957;27;20039;-67
2023/07/04 11:11:15;;;;;;;12.90;2.87;;;16.60;99.90;;;;;;5143891;27;20054;-67
2023/07/04 11:13:52;;;;;;;9.40;2.97;;;16.60;99.90;;;;;;5092618;28;20043;-67
2023/07/04 11:16:23;;;;;;;11.48;3.08;;;16.70;99.90;;;;;;5143778;27;20569;-66
2023/07/04 11:19:19;;;;;;;10.10;3.28;;;16.70;99.90;;;;;;5143777;27;20047;-66
2023/07/04 11:22:08;;;;;;;13.63;3.05;;;16.70;99.90;;;;;;5109268;28;20097;-67
2023/07/04 11:24:38;;;;;;;8.40;2.70;;;16.70;99.90;;;;;;5143548;27;20051;-66
2023/07/04 11:27:13;;;;;;;12.75;3.28;;;16.70;99.90;;;;;;5143810;27;20041;-67
2023/07/04 11:29:48;;;;;;;7.82;2.83;;;16.80;99.90;;;;;;5092080;28;20048;-66
2023/07/04 11:32:38;;;;;;;7.70;2.97;;;16.80;99.90;;;;;;5143587;27;20055;-66
2023/07/04 11:35:09;;;;;;;12.73;3.15;;;16.80;99.90;;;;;;5143841;27;20040;-67
2023/07/04 11:38:02;;;;;;;11.02;2.80;;;16.80;99.90;;;;;;5143630;27;20046;-66
2023/07/04 11:40:42;;;;;;;;;;;16.90;99.90;;;;;;5110021;28;20089;-67
2023/07/04 11:43:24;;;;;;;8.32;2.83;;;17.00;99.90;;;;;;5109370;28;19916;-68
2023/07/04 11:45:55;;;;;;;6.90;2.67;;;17.00;99.90;;;;;;5109016;28;20095;-67
2023/07/04 11:48:23;;;;;;;7.50;3.00;;;16.90;99.90;;;;;;5143799;27;20045;-67
2023/07/04 11:50:51;;;;;;;7.13;2.78;;;17.00;99.90;;;;;;5108791;28;20504;-67
2023/07/04 11:53:54;;;;;;;6.57;2.97;;;17.10;99.90;;;;;;5110625;28;20035;-66
2023/07/04 11:56:23;;;;;;;12.98;3.10;;;17.20;99.90;;;;;;5092020;28;20039;-67
2023/07/04 11:59:12;;;;;;;8.68;3.30;;;17.30;99.90;;;;;;5110144;28;20047;-66
2023/07/04 12:02:27;;;;;;;9.45;2.92;;;17.40;99.90;;;;;;5143287;27;20100;-66
2023/07/04 12:04:53;;;;;;;13.60;3.30;;;17.40;99.90;;;;;;5094291;28;20059;-67
2023/07/04 12:07:26;;;;;;;10.30;3.33;;;17.50;99.90;;;;;;5143122;27;20047;-66
2023/07/04 12:10:04;;;;;;;;;;;17.50;99.90;;;;;;5143930;27;20051;-67
2023/07/04 12:12:33;;;;;;;12.35;3.45;;;17.50;99.90;;;;;;5112235;28;20422;-66
2023/07/04 12:15:17;;;;;;;9.85;3.63;;;17.50;99.90;;;;;;5147062;27;20043;-67
2023/07/04 12:17:45;;;;;;;9.98;3.13;;;17.40;99.90;;;;;;5095636;28;20093;-66
2023/07/04 12:20:17;;;;;;;14.77;3.08;;;17.50;99.90;;;;;;5095433;28;20581;-66
2023/07/04 12:22:44;;;;;;;;;;;17.60;99.90;;;;;;5095845;28;20043;-66
2023/07/04 12:25:18;;;;;;;11.55;3.33;;;17.60;99.90;;;;;;5095384;28;19916;-66
2023/07/04 12:27:44;;;;;;;8.45;3.22;;;17.60;99.90;;;;;;5146368;27;20039;-66
2023/07/04 12:30:13;;;;;;;10.32;3.00;;;17.60;99.90;;;;;;5112332;28;20040;-66
2023/07/04 12:32:39;;;;;;;7.13;3.05;;;17.80;99.90;;;;;;5095354;28;20040;-67
2023/07/04 12:35:06;;;;;;;8.55;2.90;;;18.10;99.90;;;;;;5146678;27;20088;-69
2023/07/04 12:37:39;;;;;;;6.65;2.63;;;18.30;99.90;;;;;;5095265;28;20051;-67
2023/07/04 12:40:12;;;;;;;11.52;2.38;;;18.50;99.90;;;;;;5095174;28;20043;-67
2023/07/04 12:42:38;;;;;;;;;;;18.70;99.90;;;;;;5147117;27;20047;-68
2023/07/04 12:45:29;;;;;;;8.55;2.28;;;19.00;99.90;;;;;;5113616;28;20014;-67
2023/07/04 12:47:59;;;;;;;9.23;2.70;;;19.10;99.90;;;;;;5112176;28;20041;-67
2023/07/04 12:50:27;;;;;;;8.52;2.40;;;19.20;99.90;;;;;;5146371;27;20050;-67
2023/07/04 12:52:53;;;;;;;6.88;2.30;;;19.30;99.90;;;;;;5111685;28;20092;-66
2023/07/04 12:55:24;;;;;;;6.45;2.38;;;19.60;99.90;;;;;;5146206;27;20485;-67
2023/07/04 12:57:51;;;;;;;9.07;2.47;;;19.70;99.90;;;;;;5146201;27;20066;-67